Time;durP1;ratioP1;P1;durP2;ratioP2;P2;SDS_P1;SDS_P2;PMS_P1;PMS_P2;Temp;Humidity;BMP_temperature;BMP_pressure;BME280_temperature;BME280_humidity;BME280_pressure;Samples;Min_cycle;Max_cycle;Signal;HPM_P1;HPM_P2
2023/08/13 04:48:47;;;;;;;9.50;8.03;;;;;;;16.62;100.00;96419.06;7397176;19;20379;-91
2023/08/13 04:51:27;;;;;;;9.97;8.97;;;;;;;16.17;100.00;96346.84;7396735;19;20692;-90
2023/08/13 04:53:54;;;;;;;8.57;7.77;;;;;;;16.33;100.00;96373.34;7397864;19;20437;-92
2023/08/13 04:56:23;;;;;;;10.63;9.53;;;;;;;16.02;100.00;96323.75;7392958;19;20385;-91
2023/08/13 04:58:51;;;;;;;9.80;9.00;;;;;;;15.96;100.00;96317.97;7395454;19;20384;-92
2023/08/13 05:01:20;;;;;;;9.40;8.40;;;;;;;16.57;100.00;96388.13;7396548;19;20397;-91
2023/08/13 05:03:51;;;;;;;10.23;9.00;;;;;;;16.67;100.00;96400.03;7395082;19;20787;-92
2023/08/13 05:06:18;;;;;;;9.43;8.67;;;;;;;16.60;100.00;96378.63;7406139;19;20396;-90
2023/08/13 05:08:45;;;;;;;9.00;8.20;;;;;;;17.02;100.00;96439.78;7425687;19;20389;-90
2023/08/13 05:11:13;;;;;;;9.93;7.90;;;;;;;16.01;100.00;96295.53;7418063;19;20393;-91
2023/08/13 05:13:40;;;;;;;8.33;7.63;;;;;;;16.18;100.00;96305.69;7393758;19;20475;-91
2023/08/13 05:16:08;;;;;;;8.63;7.70;;;;;;;17.11;100.00;96438.38;7396061;19;20380;-91
2023/08/13 05:18:36;;;;;;;7.87;7.17;;;;;;;16.73;100.00;96386.03;7396977;19;20396;-91
2023/08/13 05:21:05;;;;;;;8.17;7.50;;;;;;;16.53;100.00;96341.91;7400560;19;20414;-91
2023/08/13 05:23:32;;;;;;;9.67;8.87;;;;;;;17.20;100.00;96432.72;7396826;19;21015;-91
2023/08/13 05:25:59;;;;;;;12.57;8.27;;;;;;;17.28;100.00;96407.63;7402576;19;20414;-91
2023/08/13 05:28:27;;;;;;;8.37;7.57;;;;;;;16.80;100.00;96327.38;7401590;19;20396;-91
2023/08/13 05:30:54;;;;;;;7.40;6.70;;;;;;;16.57;100.00;96302.69;7402996;19;20373;-92
2023/08/13 05:33:22;;;;;;;9.70;8.77;;;;;;;17.15;100.00;96387.63;7397296;19;20420;-92
2023/08/13 05:35:49;;;;;;;9.10;8.20;;;;;;;16.68;100.00;96303.59;7398817;19;20395;-92
2023/08/13 05:38:16;;;;;;;9.03;8.23;;;;;;;17.34;100.00;96392.00;7402451;19;20472;-92
2023/08/13 05:40:43;;;;;;;10.27;9.27;;;;;;;16.93;100.00;96316.41;7403030;19;20392;-92
2023/08/13 05:43:10;;;;;;;8.73;8.03;;;;;;;18.06;100.00;96462.94;7401085;19;20467;-91
2023/08/13 05:45:37;;;;;;;10.50;9.60;;;;;;;17.83;100.00;96401.59;7403976;19;20900;-92
2023/08/13 05:48:05;;;;;;;9.17;8.17;;;;;;;17.53;100.00;96370.41;7400551;19;20393;-92
2023/08/13 05:50:32;;;;;;;10.13;9.13;;;;;;;18.04;100.00;96419.72;7401692;19;20405;-93
2023/08/13 05:52:59;;;;;;;10.30;9.30;;;;;;;18.25;100.00;96444.72;7397869;19;20397;-92
2023/08/13 05:55:26;;;;;;;9.93;8.10;;;;;;;18.59;100.00;96482.03;7403245;19;20397;-92
2023/08/13 05:57:53;;;;;;;9.63;8.73;;;;;;;17.81;100.00;96339.69;7399633;19;20385;-92
2023/08/13 06:00:20;;;;;;;8.57;7.87;;;;;;;18.71;100.00;96475.63;7403785;19;20387;-92
2023/08/13 06:02:47;;;;;;;8.20;7.33;;;;;;;17.71;100.00;96323.19;7400870;19;20405;-92
2023/08/13 06:05:15;;;;;;;8.00;7.40;;;;;;;18.24;100.00;96424.44;7402949;19;20383;-92
2023/08/13 06:07:42;;;;;;;8.67;7.87;;;;;;;17.73;100.00;96365.63;7400871;19;20400;-92
2023/08/13 06:10:08;;;;;;;8.57;7.87;;;;;;;18.05;100.00;96429.28;7404743;19;20385;-92
2023/08/13 06:12:35;;;;;;;11.00;7.63;;;;;;;18.30;100.00;96454.31;7401318;19;20403;-93
2023/08/13 06:15:03;;;;;;;9.60;8.60;;;;;;;18.23;100.00;96448.91;7402878;19;20393;-93
2023/08/13 06:17:30;;;;;;;11.07;9.93;;;;;;;17.76;100.00;96369.44;7404736;19;20436;-93
2023/08/13 06:19:58;;;;;;;10.50;9.50;;;;;;;17.84;100.00;96390.53;7430444;19;20395;-92
2023/08/13 06:22:24;;;;;;;10.43;8.87;;;;;;;18.30;100.00;96470.38;7409880;19;20392;-93
2023/08/13 06:24:51;;;;;;;9.30;8.47;;;;;;;17.23;100.00;96297.59;7400578;19;20393;-93
2023/08/13 06:27:18;;;;;;;9.37;7.80;;;;;;;18.45;100.00;96469.31;7427837;19;20411;-91
2023/08/13 06:29:45;;;;;;;9.80;8.80;;;;;;;18.30;100.00;96467.72;7432367;19;20406;-92
2023/08/13 06:32:32;;;;;;;9.37;8.30;;;;;;;18.38;100.00;96485.34;7434781;19;20396;-92
2023/08/13 06:34:59;;;;;;;9.70;8.80;;;;;;;17.40;100.00;96326.38;7433875;19;20380;-92
2023/08/13 06:37:26;;;;;;;8.33;7.53;;;;;;;18.27;100.00;96455.81;7429758;19;20392;-92
2023/08/13 06:39:53;;;;;;;8.70;7.90;;;;;;;17.69;100.00;96370.19;7430797;19;20437;-92
2023/08/13 06:42:20;;;;;;;8.97;7.90;;;;;;;18.10;100.00;96402.94;7430414;19;20389;-91
2023/08/13 06:44:48;;;;;;;10.00;9.00;;;;;;;18.58;100.00;96483.19;7397906;19;20431;-93
2023/08/13 06:47:15;;;;;;;9.40;7.70;;;;;;;18.11;100.00;96409.06;7397112;19;20400;-93
2023/08/13 06:49:42;;;;;;;8.27;7.43;;;;;;;17.90;100.00;96364.22;7399965;19;20393;-92
2023/08/13 06:52:10;;;;;;;8.63;7.67;;;;;;;17.57;100.00;96309.69;7417529;19;20389;-92
2023/08/13 06:54:38;;;;;;;7.67;6.83;;;;;;;18.45;100.00;96431.84;7431371;19;20421;-91
2023/08/13 06:57:05;;;;;;;6.97;6.33;;;;;;;18.69;100.00;96483.25;7430215;19;20393;-92
2023/08/13 06:59:32;;;;;;;8.20;7.30;;;;;;;18.23;100.00;96406.06;7429737;19;20376;-92
2023/08/13 07:01:59;;;;;;;7.60;6.90;;;;;;;18.86;100.00;96494.06;7422075;19;20410;-93
2023/08/13 07:04:28;;;;;;;10.57;7.13;;;;;;;18.88;100.00;96494.47;7408348;19;20412;-93
2023/08/13 07:06:56;;;;;;;9.17;7.37;;;;;;;17.84;100.00;96318.31;7405197;19;20929;-93
2023/08/13 07:09:24;;;;;;;8.27;7.37;;;;;;;18.99;100.00;96489.16;7397857;19;20365;-94
2023/08/13 07:11:51;;;;;;;7.30;6.70;;;;;;;19.07;100.00;96474.63;7397658;19;20400;-93
2023/08/13 07:14:18;;;;;;;8.60;7.90;;;;;;;18.58;100.00;96418.91;7398055;19;20441;-93
2023/08/13 07:16:46;;;;;;;8.13;7.43;;;;;;;18.18;100.00;96359.03;7398552;19;20385;-93
2023/08/13 07:19:13;;;;;;;8.53;7.73;;;;;;;18.39;100.00;96389.72;7401106;19;20411;-93
2023/08/13 07:21:40;;;;;;;12.97;7.50;;;;;;;19.07;100.00;96516.72;7400952;19;20456;-93
2023/08/13 07:24:07;;;;;;;8.77;8.07;;;;;;;17.72;100.00;96326.63;7398630;19;20433;-92
2023/08/13 07:26:34;;;;;;;7.43;6.73;;;;;;;18.35;100.00;96429.09;7405611;19;20418;-92
2023/08/13 07:29:02;;;;;;;9.50;8.70;;;;;;;18.21;100.00;96419.06;7401137;19;20971;-92
2023/08/13 07:31:30;;;;;;;9.50;7.70;;;;;;;17.67;100.00;96335.75;7397837;19;20456;-92
2023/08/13 07:33:57;;;;;;;10.23;7.73;;;;;;;17.44;100.00;96281.72;7398867;19;20413;-92
2023/08/13 07:36:24;;;;;;;8.40;7.70;;;;;;;18.02;100.00;96347.84;7397273;19;20721;-92
2023/08/13 07:38:51;;;;;;;9.37;8.10;;;;;;;17.89;100.00;96338.59;7399566;19;20377;-92
2023/08/13 07:41:18;;;;;;;10.20;8.47;;;;;;;17.40;100.00;96268.34;7397082;19;20388;-92
2023/08/13 07:43:45;;;;;;;9.50;8.30;;;;;;;18.37;100.00;96383.97;7398695;19;20845;-92
2023/08/13 07:46:12;;;;;;;8.67;7.87;;;;;;;18.89;100.00;96438.94;7401230;19;20432;-92
2023/08/13 07:48:41;;;;;;;8.20;7.40;;;;;;;18.89;100.00;96450.44;7399909;19;20396;-92
2023/08/13 07:51:08;;;;;;;8.80;8.00;;;;;;;18.86;100.00;96419.03;7399020;19;20387;-92
2023/08/13 07:53:35;;;;;;;9.23;8.40;;;;;;;19.32;100.00;96495.38;7400143;19;20417;-92
2023/08/13 07:56:03;;;;;;;8.93;8.13;;;;;;;18.33;100.00;96341.13;7399844;19;20380;-92
2023/08/13 07:58:30;;;;;;;7.40;6.80;;;;;;;18.56;100.00;96375.63;7399999;19;20380;-92
2023/08/13 08:00:57;;;;;;;8.10;7.30;;;;;;;18.64;100.00;96400.56;7400231;19;20385;-92
2023/08/13 08:03:24;;;;;;;8.00;7.30;;;;;;;17.76;100.00;96251.75;7397691;19;20424;-92
2023/08/13 08:05:52;;;;;;;7.27;6.57;;;;;;;18.91;100.00;96375.03;7400085;19;20396;-92
2023/08/13 08:08:19;;;;;;;8.20;7.40;;;;;;;19.87;100.00;96458.31;7401081;19;20413;-92
2023/08/13 08:10:46;;;;;;;7.87;7.07;;;;;;;19.58;100.00;96403.13;7399577;19;20425;-92
2023/08/13 08:13:13;;;;;;;8.53;6.00;;;;;;;20.53;100.00;96541.97;7427196;19;20444;-90
2023/08/13 08:15:40;;;;;;;6.60;5.93;;;;;;;20.18;100.00;96429.94;7426628;19;20413;-91
2023/08/13 08:18:45;;;;;;;;;;;;;;;;;;;;;
2023/08/13 08:28:48;;;;;;;7.33;6.63;;;;;;;19.80;100.00;96385.88;7396650;19;20421;-94
2023/08/13 08:32:26;;;;;;;7.57;6.90;;;;;;;19.69;100.00;96388.56;7400284;19;20527;-94
2023/08/13 08:36:10;;;;;;;6.90;6.30;;;;;;;19.43;100.00;96311.13;7392739;19;20379;-95
2023/08/13 08:39:12;;;;;;;7.77;6.33;;;;;;;19.33;100.00;96287.78;7390161;19;20400;-94
2023/08/13 08:42:02;;;;;;;7.00;6.40;;;;;;;20.34;100.00;96418.78;7395705;19;20406;-93
2023/08/13 08:44:32;;;;;;;7.20;6.27;;;;;;;20.46;100.00;96391.53;7392400;19;20421;-92
2023/08/13 08:47:02;;;;;;;6.63;6.10;;;;;;;21.18;100.00;96527.22;7395663;19;20405;-93
2023/08/13 08:49:30;;;;;;;6.20;5.70;;;;;;;20.22;100.00;96416.50;7393187;19;20377;-93
2023/08/13 08:51:57;;;;;;;6.43;5.93;;;;;;;21.13;100.00;96481.91;7396821;19;20479;-92
2023/08/13 08:54:24;;;;;;;6.23;5.77;;;;;;;20.85;100.00;96396.00;7396804;19;20409;-92
2023/08/13 08:56:51;;;;;;;6.40;5.87;;;;;;;21.27;100.00;96411.16;7403243;19;20988;-93
2023/08/13 08:59:19;;;;;;;8.97;6.93;;;;;;;20.66;100.00;96395.31;7401368;19;20396;-92
2023/08/13 09:01:46;;;;;;;6.20;5.63;;;;;;;21.36;100.00;96515.63;7402657;19;20924;-93
2023/08/13 09:04:13;;;;;;;11.70;5.83;;;;;;;20.80;100.00;96485.84;7399683;19;20420;-93
2023/08/13 09:07:06;;;;;;;5.53;5.13;;;;;;;20.80;100.00;96477.03;7412836;19;20431;-92
2023/08/13 09:09:33;;;;;;;6.03;5.40;;;;;;;20.88;100.00;96473.94;7402856;19;20384;-93
2023/08/13 09:12:01;;;;;;;6.17;5.67;;;;;;;20.91;100.00;96483.13;7404257;19;20895;-93
2023/08/13 09:14:28;;;;;;;8.63;5.93;;;;;;;20.65;100.00;96442.13;7415543;19;20431;-91
2023/08/13 09:16:56;;;;;;;6.13;5.60;;;;;;;20.44;100.00;96420.72;7418424;19;20427;-92
2023/08/13 09:19:26;;;;;;;6.83;6.13;;;;;;;19.66;100.00;96300.03;7409683;19;20464;-92
2023/08/13 09:21:59;;;;;;;6.73;6.23;;;;;;;19.99;100.00;96350.56;7434351;19;20393;-91
2023/08/13 09:24:35;;;;;;;5.60;5.10;;;;;;;20.19;100.00;96391.19;7426942;19;20442;-92
2023/08/13 09:27:03;;;;;;;5.97;5.47;;;;;;;20.30;100.00;96401.94;7405956;19;20368;-92
2023/08/13 09:29:31;;;;;;;5.83;5.37;;;;;;;19.62;100.00;96259.03;7423528;19;20397;-92
2023/08/13 09:32:00;;;;;;;8.53;7.80;;;;;;;20.38;100.00;96357.75;7433568;19;20369;-91
2023/08/13 09:34:28;;;;;;;7.80;7.20;;;;;;;20.08;100.00;96324.09;7409794;19;20420;-92
2023/08/13 09:36:57;;;;;;;6.43;5.83;;;;;;;20.33;100.00;96372.38;7405246;19;21325;-92
2023/08/13 09:39:27;;;;;;;6.77;5.70;;;;;;;19.70;100.00;96292.75;7402540;19;20380;-92
2023/08/13 09:41:54;;;;;;;6.27;5.47;;;;;;;20.20;100.00;96408.06;7405314;19;20384;-92
2023/08/13 09:44:26;;;;;;;5.53;5.00;;;;;;;19.60;100.00;96320.34;7400228;19;20450;-92
2023/08/13 09:46:58;;;;;;;8.90;6.00;;;;;;;19.44;100.00;96288.53;7403396;19;20403;-92
2023/08/13 09:49:30;;;;;;;6.03;5.53;;;;;;;20.72;100.00;96480.91;7400479;19;20407;-92
2023/08/13 09:52:04;;;;;;;6.83;6.23;;;;;;;20.75;100.00;96472.81;7403101;19;20410;-92
2023/08/13 09:54:47;;;;;;;6.27;5.67;;;;;;;21.08;100.00;96517.25;7398330;19;20479;-92
2023/08/13 09:57:17;;;;;;;6.37;5.83;;;;;;;19.83;100.00;96339.50;7402975;19;20385;-91
2023/08/13 09:59:44;;;;;;;6.53;6.03;;;;;;;19.85;100.00;96353.28;7401788;19;20388;-92
2023/08/13 10:02:14;;;;;;;6.20;5.60;;;;;;;20.98;100.00;96485.81;7400226;19;20393;-91
2023/08/13 10:04:42;;;;;;;6.37;5.83;;;;;;;20.18;100.00;96329.84;7398486;19;20413;-92
2023/08/13 10:07:09;;;;;;;5.60;4.97;;;;;;;20.46;100.00;96393.47;7400489;19;20377;-92
2023/08/13 10:09:37;;;;;;;5.70;5.20;;;;;;;19.58;100.00;96279.72;7402861;19;20403;-92
2023/08/13 10:12:09;;;;;;;5.80;5.27;;;;;;;20.99;100.00;96473.91;7401920;19;20381;-92
2023/08/13 10:14:37;;;;;;;6.10;5.70;;;;;;;20.37;100.00;96375.03;7399880;19;20416;-92
2023/08/13 10:17:06;;;;;;;8.33;7.23;;;;;;;21.30;100.00;96501.06;7401255;19;20460;-92
2023/08/13 10:19:39;;;;;;;6.10;5.50;;;;;;;21.21;100.00;96501.44;7417318;19;20384;-92
2023/08/13 10:22:12;;;;;;;5.57;5.07;;;;;;;19.77;100.00;96288.16;7414812;19;20392;-92
2023/08/13 10:24:42;;;;;;;4.67;4.27;;;;;;;20.33;100.00;96376.97;7405801;19;20397;-91
2023/08/13 10:27:13;;;;;;;5.33;4.20;;;;;;;20.40;100.00;96370.81;7404747;19;20385;-92
2023/08/13 10:29:43;;;;;;;4.67;4.37;;;;;;;20.62;100.00;96399.94;7405855;19;20396;-92
2023/08/13 10:32:15;;;;;;;5.67;4.60;;;;;;;20.41;100.00;96348.16;7405694;19;20388;-92
2023/08/13 10:34:50;;;;;;;5.70;5.20;;;;;;;19.67;100.00;96231.81;7405812;19;20423;-92
2023/08/13 10:37:19;;;;;;;5.60;5.20;;;;;;;20.65;100.00;96374.97;7410414;19;20398;-92
2023/08/13 10:40:08;;;;;;;6.10;4.90;;;;;;;20.47;100.00;96347.41;7410973;19;20400;-92
2023/08/13 10:42:36;;;;;;;6.50;5.07;;;;;;;21.06;100.00;96462.34;7410001;19;20385;-92
2023/08/13 10:45:04;;;;;;;5.83;5.30;;;;;;;20.58;100.00;96364.25;7414714;19;20393;-92
2023/08/13 10:47:40;;;;;;;5.73;5.33;;;;;;;21.64;100.00;96487.81;7410481;19;20384;-91
2023/08/13 10:50:15;;;;;;;5.53;5.13;;;;;;;21.21;100.00;96407.31;7410019;19;20386;-92
2023/08/13 10:52:46;;;;;;;5.37;4.87;;;;;;;20.57;100.00;96324.34;7403678;19;20512;-92
2023/08/13 10:55:19;;;;;;;5.47;5.07;;;;;;;20.95;100.00;96384.41;7409767;19;20389;-92
2023/08/13 10:57:53;;;;;;;5.53;5.13;;;;;;;21.41;100.00;96442.59;7417390;19;20392;-92
2023/08/13 11:00:24;;;;;;;5.37;4.87;;;;;;;21.80;100.00;96502.31;7405107;19;20377;-92
2023/08/13 11:03:14;;;;;;;4.70;4.40;;;;;;;21.48;100.00;96461.38;7402257;19;20397;-92
2023/08/13 11:05:43;;;;;;;6.97;6.17;;;;;;;20.72;100.00;96331.19;7403616;19;20452;-91
2023/08/13 11:08:17;;;;;;;6.70;5.00;;;;;;;20.86;100.00;96390.22;7405121;19;20396;-92
2023/08/13 11:10:52;;;;;;;8.27;6.90;;;;;;;19.89;100.00;96249.38;7403329;19;20387;-92
2023/08/13 11:13:20;;;;;;;5.17;4.67;;;;;;;20.38;100.00;96338.97;7404014;19;20447;-92
2023/08/13 11:15:53;;;;;;;6.97;6.40;;;;;;;21.15;100.00;96454.63;7401375;19;20393;-92
2023/08/13 11:18:21;;;;;;;5.57;5.07;;;;;;;20.24;100.00;96301.41;7404205;19;20397;-92
2023/08/13 11:20:50;;;;;;;5.00;4.67;;;;;;;20.89;100.00;96392.13;7403088;19;20391;-92
2023/08/13 11:23:18;;;;;;;7.07;6.50;;;;;;;20.37;100.00;96329.38;7401584;19;20857;-92
2023/08/13 11:25:49;;;;;;;6.27;5.70;;;;;;;20.66;100.00;96357.69;7405537;19;20391;-92
2023/08/13 11:28:25;;;;;;;5.60;4.80;;;;;;;21.77;100.00;96491.59;7405124;19;20378;-92
2023/08/13 11:30:54;;;;;;;6.00;5.17;;;;;;;21.44;100.00;96452.56;7404505;19;20384;-92
2023/08/13 11:33:22;;;;;;;7.10;6.30;;;;;;;20.96;100.00;96357.13;7419486;19;20424;-92
2023/08/13 11:35:51;;;;;;;5.13;4.73;;;;;;;22.04;100.00;96500.63;7421182;19;20393;-90
2023/08/13 11:38:22;;;;;;;7.70;7.10;;;;;;;21.94;100.00;96498.75;7411226;19;20407;-91
2023/08/13 11:40:49;;;;;;;5.37;4.87;;;;;;;21.37;100.00;96434.56;7411763;19;20380;-90
2023/08/13 11:43:18;;;;;;;5.70;5.30;;;;;;;21.18;100.00;96390.06;7402341;19;20451;-91
2023/08/13 11:45:49;;;;;;;5.53;5.00;;;;;;;21.18;100.00;96414.25;7405917;19;20426;-91
2023/08/13 11:48:19;;;;;;;4.93;4.53;;;;;;;20.53;100.00;96331.63;7403801;19;20410;-92
2023/08/13 11:50:48;;;;;;;5.00;4.70;;;;;;;20.66;100.00;96346.94;7406587;19;20463;-93
2023/08/13 11:53:27;;;;;;;6.47;5.97;;;;;;;20.70;100.00;96356.88;7403463;19;20417;-91
2023/08/13 11:55:54;;;;;;;6.57;5.50;;;;;;;19.68;100.00;96247.53;7401181;19;20396;-92
2023/08/13 11:58:25;;;;;;;7.23;5.63;;;;;;;20.80;100.00;96396.41;7401231;19;20407;-91
2023/08/13 12:00:52;;;;;;;129.73;115.57;;;;;;;20.62;100.00;96340.06;7400780;19;20731;-91
2023/08/13 12:03:20;;;;;;;51.23;42.80;;;;;;;20.25;100.00;96289.53;7399596;19;20823;-91
2023/08/13 12:05:50;;;;;;;50.30;44.90;;;;;;;21.49;100.00;96444.06;7400187;19;20912;-90
2023/08/13 12:08:18;;;;;;;9.00;8.23;;;;;;;21.40;100.00;96417.63;7403729;19;20389;-91
2023/08/13 12:10:45;;;;;;;184.80;165.83;;;;;;;20.33;100.00;96242.69;7404335;19;20983;-91
2023/08/13 12:13:12;;;;;;;7.67;7.10;;;;;;;20.98;100.00;96337.94;7413199;19;20436;-91
2023/08/13 12:15:39;;;;;;;5.73;5.23;;;;;;;20.64;100.00;96294.75;7429316;19;20456;-91
2023/08/13 12:18:07;;;;;;;17.73;14.53;;;;;;;21.00;100.00;96311.44;7420461;19;20448;-91
2023/08/13 12:20:35;;;;;;;103.10;91.87;;;;;;;21.21;100.00;96310.50;7397931;19;20377;-90
2023/08/13 12:23:02;;;;;;;6.90;6.40;;;;;;;20.85;100.00;96285.81;7402956;19;20935;-91
2023/08/13 12:25:29;;;;;;;22.23;17.30;;;;;;;20.63;100.00;96224.13;7401397;19;20393;-92
2023/08/13 12:27:57;;;;;;;6.30;5.63;;;;;;;21.21;100.00;96270.91;7405825;19;20408;-92
2023/08/13 12:30:24;;;;;;;33.80;26.43;;;;;;;21.69;100.00;96259.38;7407442;19;20360;-92
2023/08/13 12:32:51;;;;;;;6.13;5.63;;;;;;;22.56;100.00;96346.91;7409597;19;20761;-92
2023/08/13 12:35:18;;;;;;;5.13;4.73;;;;;;;22.31;100.00;96293.34;7410442;19;20388;-92
2023/08/13 12:37:47;;;;;;;132.80;116.90;;;;;;;24.16;100.00;96462.66;7413319;19;20397;-91
2023/08/13 12:40:15;;;;;;;31.30;27.97;;;;;;;23.38;100.00;96264.88;7407231;19;20488;-92
2023/08/13 12:42:43;;;;;;;5.90;5.33;;;;;;;22.89;100.00;96361.56;7407580;19;20413;-92
2023/08/13 12:45:10;;;;;;;5.27;4.87;;;;;;;23.06;100.00;96397.56;7409471;19;20392;-92
2023/08/13 12:47:37;;;;;;;39.27;34.87;;;;;;;23.66;100.00;96343.88;7410627;19;20414;-91
2023/08/13 12:50:07;;;;;;;10.67;9.60;;;;;;;24.05;100.00;96348.63;7409255;19;20388;-92
2023/08/13 12:52:35;;;;;;;4.57;4.17;;;;;;;23.92;100.00;96323.38;7410438;19;20385;-91
2023/08/13 12:55:03;;;;;;;9.17;6.33;;;;;;;25.35;100.00;96446.50;7408501;19;20415;-91
2023/08/13 12:57:30;;;;;;;6.57;5.90;;;;;;;24.44;100.00;96332.44;7405806;19;20395;-91
2023/08/13 12:59:57;;;;;;;6.73;6.13;;;;;;;24.79;100.00;96341.00;7404754;19;20403;-91
2023/08/13 13:02:24;;;;;;;6.37;5.77;;;;;;;25.67;100.00;96359.13;7404594;19;20384;-92
2023/08/13 13:05:03;;;;;;;22.83;20.37;;;;;;;24.25;100.00;96299.97;7407290;19;20394;-91
2023/08/13 13:07:30;;;;;;;52.97;47.43;;;;;;;23.95;100.00;96314.44;7406912;19;20380;-92
2023/08/13 13:09:57;;;;;;;75.10;61.00;;;;;;;24.80;100.00;96444.53;7408430;19;20392;-91
2023/08/13 13:12:24;;;;;;;26.77;23.93;;;;;;;24.61;100.00;96417.09;7405856;19;20373;-92
2023/08/13 13:14:51;;;;;;;9.03;8.13;;;;;;;23.73;100.00;96305.94;7405208;19;20472;-92
2023/08/13 13:17:21;;;;;;;10.83;9.70;;;;;;;24.27;100.00;96400.31;7405642;19;20383;-92
2023/08/13 13:19:49;;;;;;;5.60;5.20;;;;;;;23.77;100.00;96380.34;7402571;19;20384;-92
2023/08/13 13:22:16;;;;;;;10.67;9.77;;;;;;;23.96;100.00;96303.22;7402697;19;20821;-92
2023/08/13 13:24:43;;;;;;;5.23;4.83;;;;;;;24.64;100.00;96293.78;7420319;19;20425;-92
2023/08/13 13:27:10;;;;;;;4.50;3.83;;;;;;;24.60;100.00;96388.53;7430873;19;20377;-92
2023/08/13 13:29:37;;;;;;;5.87;4.30;;;;;;;22.74;100.00;96219.25;7436582;19;20385;-91
2023/08/13 13:32:05;;;;;;;5.00;4.60;;;;;;;23.19;100.00;96333.00;7421444;19;20957;-92
2023/08/13 13:34:32;;;;;;;5.23;4.83;;;;;;;22.87;100.00;96328.84;7399456;19;20396;-92
2023/08/13 13:36:59;;;;;;;5.00;4.50;;;;;;;22.67;100.00;96298.28;7402140;19;20501;-92
2023/08/13 13:39:26;;;;;;;5.73;5.23;;;;;;;22.88;100.00;96376.22;7400918;19;20373;-92
2023/08/13 13:41:53;;;;;;;5.60;5.07;;;;;;;22.78;100.00;96325.84;7403426;19;20389;-92
2023/08/13 13:44:21;;;;;;;5.93;4.20;;;;;;;22.90;100.00;96325.34;7403723;19;20424;-91
2023/08/13 13:46:48;;;;;;;4.87;3.90;;;;;;;23.21;100.00;96344.16;7402366;19;20955;-91
2023/08/13 13:49:21;;;;;;;5.60;5.10;;;;;;;22.43;100.00;96263.16;7403884;19;20389;-92
2023/08/13 13:51:50;;;;;;;5.20;4.80;;;;;;;23.94;100.00;96408.22;7410546;19;20391;-91
2023/08/13 13:54:17;;;;;;;5.57;4.60;;;;;;;23.35;100.00;96327.75;7403218;19;20940;-92
2023/08/13 13:56:44;;;;;;;4.90;4.50;;;;;;;23.35;100.00;96221.75;7401972;19;20518;-92
2023/08/13 13:59:12;;;;;;;4.07;3.67;;;;;;;24.99;100.00;96324.72;7411195;19;20377;-92
2023/08/13 14:01:43;;;;;;;4.30;4.00;;;;;;;24.60;100.00;96139.75;7411014;19;20363;-92
2023/08/13 14:04:10;;;;;;;4.97;4.67;;;;;;;24.35;100.00;96286.28;7401212;19;20443;-92
2023/08/13 14:06:38;;;;;;;5.17;4.77;;;;;;;23.68;100.00;96199.19;7414708;19;20377;-90
2023/08/13 14:09:05;;;;;;;4.50;4.20;;;;;;;23.56;100.00;96195.13;7432082;19;20465;-91
2023/08/13 14:11:32;;;;;;;5.17;4.70;;;;;;;23.76;100.00;96268.06;7423332;19;20896;-92
2023/08/13 14:13:59;;;;;;;4.80;4.40;;;;;;;25.45;100.00;96350.00;7401124;19;20480;-92
2023/08/13 14:16:26;;;;;;;4.30;4.00;;;;;;;26.17;100.00;96358.63;7402773;19;20388;-92
2023/08/13 14:18:54;;;;;;;4.13;3.83;;;;;;;25.54;100.00;96266.97;7399014;19;20403;-92
2023/08/13 14:21:21;;;;;;;3.60;3.37;;;;;;;25.82;100.00;96246.53;7402939;19;20702;-92
2023/08/13 14:23:48;;;;;;;3.97;3.67;;;;;;;26.64;100.00;96303.16;7398076;19;20418;-92
2023/08/13 14:26:15;;;;;;;4.60;3.90;;;;;;;26.51;100.00;96311.28;7403086;19;20459;-92
2023/08/13 14:28:42;;;;;;;4.03;3.63;;;;;;;26.07;100.00;96266.78;7399898;19;20475;-92
2023/08/13 14:31:09;;;;;;;4.07;3.70;;;;;;;25.79;100.00;96298.13;7425405;19;20401;-91
2023/08/13 14:33:36;;;;;;;3.77;3.57;;;;;;;25.15;100.00;96259.81;7428848;19;20416;-92
2023/08/13 14:36:03;;;;;;;3.73;3.33;;;;;;;24.90;100.00;96259.59;7406663;19;20754;-92
2023/08/13 14:38:31;;;;;;;3.43;3.23;;;;;;;25.43;100.00;96236.69;7401156;19;20377;-92
2023/08/13 14:41:01;;;;;;;3.80;3.40;;;;;;;24.21;100.00;96193.91;7402365;19;20385;-92
2023/08/13 14:43:32;;;;;;;4.27;3.87;;;;;;;23.72;100.00;96231.53;7397192;19;20936;-92
2023/08/13 14:46:00;;;;;;;4.20;3.80;;;;;;;23.93;100.00;96251.97;7398960;19;20392;-92
2023/08/13 14:48:27;;;;;;;3.80;3.50;;;;;;;23.37;100.00;96230.19;7399712;19;20452;-92
2023/08/13 14:50:54;;;;;;;4.10;3.50;;;;;;;23.25;100.00;96183.75;7399366;19;20455;-92
2023/08/13 14:53:21;;;;;;;5.17;4.07;;;;;;;23.61;100.00;96295.75;7402085;19;20411;-92
2023/08/13 14:55:48;;;;;;;3.77;3.47;;;;;;;24.34;100.00;96344.22;7406342;19;20945;-92
2023/08/13 14:58:19;;;;;;;3.80;3.50;;;;;;;24.45;100.00;96235.88;7405107;19;20412;-92
2023/08/13 15:00:48;;;;;;;4.23;3.83;;;;;;;25.56;100.00;96336.97;7395088;19;20380;-92
2023/08/13 15:03:15;;;;;;;3.90;3.60;;;;;;;25.97;100.00;96344.47;7402993;19;20443;-93
2023/08/13 15:05:43;;;;;;;4.57;3.67;;;;;;;25.53;100.00;96302.59;7409823;19;20388;-92
2023/08/13 15:08:13;;;;;;;3.33;3.00;;;;;;;25.35;100.00;96276.72;7415153;19;20391;-92
2023/08/13 15:10:46;;;;;;;4.00;3.60;;;;;;;25.77;100.00;96398.00;7421997;19;20415;-92
2023/08/13 15:13:14;;;;;;;4.70;3.20;;;;;;;24.91;100.00;96315.22;7412970;19;20464;-92
2023/08/13 15:15:41;;;;;;;3.13;2.93;;;;;;;24.76;100.00;96363.47;7426607;19;20381;-91
2023/08/13 15:18:12;;;;;;;6.40;4.07;;;;;;;23.99;100.00;96240.25;7431382;19;20381;-92
2023/08/13 15:20:44;;;;;;;8.57;3.47;;;;;;;25.08;100.00;96384.44;7426870;19;20376;-92
2023/08/13 15:23:14;;;;;;;3.63;3.30;;;;;;;24.17;100.00;96256.09;7417610;19;20398;-92
2023/08/13 15:25:46;;;;;;;3.63;3.33;;;;;;;25.08;100.00;96370.94;7415210;19;20483;-92
2023/08/13 15:28:23;;;;;;;3.33;3.03;;;;;;;24.94;100.00;96263.75;7408697;19;20376;-92
2023/08/13 15:30:54;;;;;;;5.50;3.80;;;;;;;24.58;100.00;96196.19;7399584;19;20397;-92
2023/08/13 15:33:23;;;;;;;5.30;3.50;;;;;;;25.04;100.00;96319.59;7396741;19;20446;-92
2023/08/13 15:35:55;;;;;;;4.23;3.57;;;;;;;23.96;100.00;96265.41;7398756;19;20385;-92
2023/08/13 15:38:23;;;;;;;3.40;3.10;;;;;;;23.58;100.00;96335.91;7397486;19;20384;-92
2023/08/13 15:40:51;;;;;;;4.33;3.93;;;;;;;23.50;100.00;96266.97;7397115;19;20396;-92
2023/08/13 15:43:18;;;;;;;3.57;3.27;;;;;;;24.70;100.00;96305.63;7396179;19;20984;-92
2023/08/13 15:45:45;;;;;;;5.00;3.30;;;;;;;23.54;100.00;96151.59;7397844;19;20791;-92
2023/08/13 15:48:13;;;;;;;5.80;4.90;;;;;;;25.06;100.00;96270.47;7398506;19;20397;-92
2023/08/13 15:50:40;;;;;;;3.20;2.90;;;;;;;26.05;100.00;96351.22;7399025;19;20388;-92
2023/08/13 15:53:07;;;;;;;4.00;3.60;;;;;;;24.62;100.00;96242.84;7398253;19;20442;-92
2023/08/13 15:55:41;;;;;;;3.83;3.53;;;;;;;25.84;100.00;96354.47;7399593;19;20451;-92
2023/08/13 15:58:09;;;;;;;3.23;2.93;;;;;;;25.00;100.00;96237.75;7396748;19;20374;-92
2023/08/13 16:00:38;;;;;;;3.30;3.00;;;;;;;25.27;100.00;96239.44;7396149;19;20409;-92
2023/08/13 16:03:06;;;;;;;3.70;3.40;;;;;;;24.99;100.00;96287.59;7397149;19;20415;-92
2023/08/13 16:05:33;;;;;;;3.17;2.97;;;;;;;24.00;100.00;96195.84;7395487;19;20377;-92
2023/08/13 16:08:00;;;;;;;3.50;3.20;;;;;;;24.74;100.00;96230.59;7399004;19;20385;-92
2023/08/13 16:10:32;;;;;;;3.13;2.83;;;;;;;23.78;100.00;96121.88;7397571;19;20407;-92
2023/08/13 16:12:59;;;;;;;3.53;3.07;;;;;;;23.49;100.00;96154.78;7398714;19;20420;-92
2023/08/13 16:15:26;;;;;;;3.00;2.60;;;;;;;23.46;100.00;96119.75;7395109;19;20384;-92
2023/08/13 16:17:53;;;;;;;3.60;2.63;;;;;;;23.43;100.00;96215.81;7397720;19;20384;-92
2023/08/13 16:20:21;;;;;;;3.40;3.10;;;;;;;23.32;100.00;96219.88;7399508;19;20377;-92
2023/08/13 16:22:48;;;;;;;3.80;3.50;;;;;;;23.53;100.00;96290.44;7401320;19;20424;-92
2023/08/13 16:25:17;;;;;;;6.00;3.50;;;;;;;23.96;100.00;96340.28;7400097;19;20384;-94
2023/08/13 16:27:44;;;;;;;5.37;3.50;;;;;;;22.68;100.00;96200.81;7401150;19;20395;-93
2023/08/13 16:30:13;;;;;;;3.37;2.60;;;;;;;23.62;100.00;96283.78;7398793;19;20396;-93